sensor_id;sensor_type;location;lat;lon;timestamp;temperature;humidity
26408;DHT22;14583;43.604;1.364;2024-03-23T00:55:34;16.30;99.90
26408;DHT22;14583;43.604;1.364;2024-03-23T00:57:59;16.30;99.90
26408;DHT22;14583;43.604;1.364;2024-03-23T01:00:25;16.20;99.90
26408;DHT22;14583;43.604;1.364;2024-03-23T01:02:51;16.10;99.90
26408;DHT22;14583;43.604;1.364;2024-03-23T01:05:16;16.20;99.90
26408;DHT22;14583;43.604;1.364;2024-03-23T01:07:42;16.20;99.90
26408;DHT22;14583;43.604;1.364;2024-03-23T01:10:08;16.20;99.90
26408;DHT22;14583;43.604;1.364;2024-03-23T01:12:33;16.30;99.90
26408;DHT22;14583;43.604;1.364;2024-03-23T01:14:59;16.30;99.90
26408;DHT22;14583;43.604;1.364;2024-03-23T01:17:25;16.30;99.90
26408;DHT22;14583;43.604;1.364;2024-03-23T01:19:51;16.30;99.90
26408;DHT22;14583;43.604;1.364;2024-03-23T01:22:16;16.30;99.90
26408;DHT22;14583;43.604;1.364;2024-03-23T01:24:42;16.20;99.90
26408;DHT22;14583;43.604;1.364;2024-03-23T01:27:08;16.20;99.90
26408;DHT22;14583;43.604;1.364;2024-03-23T01:29:34;16.20;99.90
26408;DHT22;14583;43.604;1.364;2024-03-23T01:32:00;16.20;99.90
26408;DHT22;14583;43.604;1.364;2024-03-23T01:34:25;16.30;99.90
26408;DHT22;14583;43.604;1.364;2024-03-23T01:36:55;16.10;99.90
26408;DHT22;14583;43.604;1.364;2024-03-23T01:39:20;16.00;99.90
26408;DHT22;14583;43.604;1.364;2024-03-23T01:41:46;16.00;99.90
26408;DHT22;14583;43.604;1.364;2024-03-23T01:44:12;16.10;99.90
26408;DHT22;14583;43.604;1.364;2024-03-23T01:46:38;16.10;99.90
26408;DHT22;14583;43.604;1.364;2024-03-23T01:49:05;16.20;99.90
26408;DHT22;14583;43.604;1.364;2024-03-23T01:51:31;16.10;99.90
26408;DHT22;14583;43.604;1.364;2024-03-23T01:53:57;16.00;99.90
26408;DHT22;14583;43.604;1.364;2024-03-23T01:56:26;16.00;99.90
26408;DHT22;14583;43.604;1.364;2024-03-23T01:58:52;15.90;99.90
26408;DHT22;14583;43.604;1.364;2024-03-23T02:01:17;15.90;99.90
26408;DHT22;14583;43.604;1.364;2024-03-23T02:03:44;15.80;99.90
26408;DHT22;14583;43.604;1.364;2024-03-23T02:06:10;15.80;99.90
26408;DHT22;14583;43.604;1.364;2024-03-23T02:08:36;15.70;99.90
26408;DHT22;14583;43.604;1.364;2024-03-23T02:11:02;15.80;99.90
26408;DHT22;14583;43.604;1.364;2024-03-23T02:13:28;15.70;99.90
26408;DHT22;14583;43.604;1.364;2024-03-23T02:15:53;15.80;99.90
26408;DHT22;14583;43.604;1.364;2024-03-23T02:18:19;15.60;99.90
26408;DHT22;14583;43.604;1.364;2024-03-23T02:20:45;15.60;99.90
26408;DHT22;14583;43.604;1.364;2024-03-23T02:23:17;15.60;99.90
26408;DHT22;14583;43.604;1.364;2024-03-23T02:25:46;15.70;99.90
26408;DHT22;14583;43.604;1.364;2024-03-23T02:28:12;15.50;99.90
26408;DHT22;14583;43.604;1.364;2024-03-23T02:30:38;15.40;99.90
26408;DHT22;14583;43.604;1.364;2024-03-23T02:33:04;15.50;99.90
26408;DHT22;14583;43.604;1.364;2024-03-23T02:35:30;15.40;99.90
26408;DHT22;14583;43.604;1.364;2024-03-23T02:37:56;15.40;99.90
26408;DHT22;14583;43.604;1.364;2024-03-23T02:40:23;15.30;99.90
26408;DHT22;14583;43.604;1.364;2024-03-23T02:42:49;15.20;99.90
26408;DHT22;14583;43.604;1.364;2024-03-23T02:45:15;15.20;99.90
26408;DHT22;14583;43.604;1.364;2024-03-23T02:47:43;15.00;99.90
26408;DHT22;14583;43.604;1.364;2024-03-23T02:50:09;14.90;99.90
26408;DHT22;14583;43.604;1.364;2024-03-23T02:52:35;14.90;99.90
26408;DHT22;14583;43.604;1.364;2024-03-23T02:55:01;14.80;99.90
26408;DHT22;14583;43.604;1.364;2024-03-23T02:57:30;14.70;99.90
26408;DHT22;14583;43.604;1.364;2024-03-23T02:59:56;14.70;99.90
26408;DHT22;14583;43.604;1.364;2024-03-23T03:02:22;14.80;99.90
26408;DHT22;14583;43.604;1.364;2024-03-23T03:04:47;14.70;99.90
26408;DHT22;14583;43.604;1.364;2024-03-23T03:07:13;14.70;99.90
26408;DHT22;14583;43.604;1.364;2024-03-23T03:09:39;14.60;99.90
26408;DHT22;14583;43.604;1.364;2024-03-23T03:12:08;14.60;99.90
26408;DHT22;14583;43.604;1.364;2024-03-23T03:14:34;14.60;99.90
26408;DHT22;14583;43.604;1.364;2024-03-23T03:17:00;14.30;99.90
26408;DHT22;14583;43.604;1.364;2024-03-23T03:19:26;14.00;99.90
26408;DHT22;14583;43.604;1.364;2024-03-23T03:21:52;14.10;99.90
26408;DHT22;14583;43.604;1.364;2024-03-23T03:24:18;14.10;99.90
26408;DHT22;14583;43.604;1.364;2024-03-23T03:26:44;14.10;99.90
26408;DHT22;14583;43.604;1.364;2024-03-23T03:29:09;14.10;99.90
26408;DHT22;14583;43.604;1.364;2024-03-23T03:31:37;14.10;99.90
26408;DHT22;14583;43.604;1.364;2024-03-23T03:34:03;14.10;99.90
26408;DHT22;14583;43.604;1.364;2024-03-23T03:36:28;14.20;99.90
26408;DHT22;14583;43.604;1.364;2024-03-23T03:38:54;14.20;99.90
26408;DHT22;14583;43.604;1.364;2024-03-23T03:41:20;13.90;99.90
26408;DHT22;14583;43.604;1.364;2024-03-23T03:43:46;13.80;99.90
26408;DHT22;14583;43.604;1.364;2024-03-23T03:46:11;13.80;99.90
26408;DHT22;14583;43.604;1.364;2024-03-23T03:48:37;13.70;99.90
26408;DHT22;14583;43.604;1.364;2024-03-23T03:51:03;13.60;99.90
26408;DHT22;14583;43.604;1.364;2024-03-23T03:53:29;13.70;99.90
26408;DHT22;14583;43.604;1.364;2024-03-23T03:55:56;13.70;99.90
26408;DHT22;14583;43.604;1.364;2024-03-23T03:58:22;13.70;99.90
26408;DHT22;14583;43.604;1.364;2024-03-23T04:00:47;13.60;99.90
26408;DHT22;14583;43.604;1.364;2024-03-23T04:03:13;13.70;99.90
26408;DHT22;14583;43.604;1.364;2024-03-23T04:05:39;13.70;99.90
26408;DHT22;14583;43.604;1.364;2024-03-23T04:08:07;13.60;99.90
26408;DHT22;14583;43.604;1.364;2024-03-23T04:10:32;13.70;99.90
26408;DHT22;14583;43.604;1.364;2024-03-23T04:12:58;13.80;99.90
26408;DHT22;14583;43.604;1.364;2024-03-23T04:15:24;13.90;99.90
26408;DHT22;14583;43.604;1.364;2024-03-23T04:17:49;13.90;99.90
26408;DHT22;14583;43.604;1.364;2024-03-23T04:20:16;14.00;99.90
26408;DHT22;14583;43.604;1.364;2024-03-23T04:22:43;14.00;99.90
26408;DHT22;14583;43.604;1.364;2024-03-23T04:25:08;14.00;99.90
26408;DHT22;14583;43.604;1.364;2024-03-23T04:27:39;14.00;99.90
26408;DHT22;14583;43.604;1.364;2024-03-23T04:30:06;14.10;99.90
26408;DHT22;14583;43.604;1.364;2024-03-23T04:32:39;13.90;99.90
26408;DHT22;14583;43.604;1.364;2024-03-23T04:35:06;14.00;99.90
26408;DHT22;14583;43.604;1.364;2024-03-23T04:37:35;13.80;99.90
26408;DHT22;14583;43.604;1.364;2024-03-23T04:40:01;13.80;99.90
26408;DHT22;14583;43.604;1.364;2024-03-23T04:42:27;13.80;99.90
26408;DHT22;14583;43.604;1.364;2024-03-23T04:44:53;13.80;99.90
26408;DHT22;14583;43.604;1.364;2024-03-23T04:47:19;13.80;99.90
26408;DHT22;14583;43.604;1.364;2024-03-23T04:49:45;13.70;99.90
26408;DHT22;14583;43.604;1.364;2024-03-23T04:52:10;13.80;99.90
26408;DHT22;14583;43.604;1.364;2024-03-23T04:54:37;13.70;99.90
26408;DHT22;14583;43.604;1.364;2024-03-23T04:57:02;13.60;99.90
26408;DHT22;14583;43.604;1.364;2024-03-23T04:59:28;13.60;99.90
26408;DHT22;14583;43.604;1.364;2024-03-23T05:01:54;13.70;99.90
26408;DHT22;14583;43.604;1.364;2024-03-23T05:04:20;13.60;99.90
26408;DHT22;14583;43.604;1.364;2024-03-23T05:06:48;13.60;99.90
26408;DHT22;14583;43.604;1.364;2024-03-23T05:09:14;13.60;99.90
26408;DHT22;14583;43.604;1.364;2024-03-23T05:11:39;13.60;99.90
26408;DHT22;14583;43.604;1.364;2024-03-23T05:14:05;13.50;99.90
26408;DHT22;14583;43.604;1.364;2024-03-23T05:16:31;13.50;99.90
26408;DHT22;14583;43.604;1.364;2024-03-23T05:18:57;13.50;99.90
26408;DHT22;14583;43.604;1.364;2024-03-23T05:21:22;13.70;99.90
26408;DHT22;14583;43.604;1.364;2024-03-23T05:23:48;13.60;99.90
26408;DHT22;14583;43.604;1.364;2024-03-23T05:26:14;13.60;99.90
26408;DHT22;14583;43.604;1.364;2024-03-23T05:28:40;13.60;99.90
26408;DHT22;14583;43.604;1.364;2024-03-23T05:31:06;13.60;99.90
26408;DHT22;14583;43.604;1.364;2024-03-23T05:33:31;13.60;99.90
26408;DHT22;14583;43.604;1.364;2024-03-23T05:35:58;13.60;99.90
26408;DHT22;14583;43.604;1.364;2024-03-23T05:38:24;13.60;99.90
26408;DHT22;14583;43.604;1.364;2024-03-23T05:40:57;13.70;99.90
26408;DHT22;14583;43.604;1.364;2024-03-23T05:43:23;13.70;99.90
26408;DHT22;14583;43.604;1.364;2024-03-23T05:46:01;13.60;99.90
26408;DHT22;14583;43.604;1.364;2024-03-23T05:48:28;13.60;99.90
26408;DHT22;14583;43.604;1.364;2024-03-23T05:50:54;13.40;99.90
26408;DHT22;14583;43.604;1.364;2024-03-23T05:53:23;13.50;99.90
26408;DHT22;14583;43.604;1.364;2024-03-23T05:55:50;13.60;99.90
26408;DHT22;14583;43.604;1.364;2024-03-23T05:58:17;13.60;99.90
26408;DHT22;14583;43.604;1.364;2024-03-23T06:00:43;13.50;99.90
26408;DHT22;14583;43.604;1.364;2024-03-23T06:03:09;13.50;99.90
26408;DHT22;14583;43.604;1.364;2024-03-23T06:05:37;13.50;99.90
26408;DHT22;14583;43.604;1.364;2024-03-23T06:08:04;13.50;99.90
26408;DHT22;14583;43.604;1.364;2024-03-23T06:10:30;13.40;99.90
26408;DHT22;14583;43.604;1.364;2024-03-23T06:12:57;13.30;99.90
26408;DHT22;14583;43.604;1.364;2024-03-23T06:15:24;13.30;99.90
26408;DHT22;14583;43.604;1.364;2024-03-23T06:17:49;13.40;99.90
26408;DHT22;14583;43.604;1.364;2024-03-23T06:20:15;13.40;99.90
26408;DHT22;14583;43.604;1.364;2024-03-23T06:22:41;13.40;99.90
26408;DHT22;14583;43.604;1.364;2024-03-23T06:25:07;13.50;99.90
26408;DHT22;14583;43.604;1.364;2024-03-23T06:27:34;13.20;99.90
26408;DHT22;14583;43.604;1.364;2024-03-23T06:30:00;13.30;99.90
26408;DHT22;14583;43.604;1.364;2024-03-23T06:32:25;13.40;99.90
26408;DHT22;14583;43.604;1.364;2024-03-23T06:34:51;13.40;99.90
26408;DHT22;14583;43.604;1.364;2024-03-23T06:37:17;13.20;99.90
26408;DHT22;14583;43.604;1.364;2024-03-23T06:39:43;13.20;99.90
26408;DHT22;14583;43.604;1.364;2024-03-23T06:42:11;13.20;99.90
26408;DHT22;14583;43.604;1.364;2024-03-23T06:44:36;13.20;99.90
26408;DHT22;14583;43.604;1.364;2024-03-23T06:47:02;13.20;99.90
26408;DHT22;14583;43.604;1.364;2024-03-23T06:49:28;13.30;99.90
26408;DHT22;14583;43.604;1.364;2024-03-23T06:51:54;13.10;99.90
26408;DHT22;14583;43.604;1.364;2024-03-23T06:54:20;13.20;99.90
26408;DHT22;14583;43.604;1.364;2024-03-23T06:56:46;13.20;99.90
26408;DHT22;14583;43.604;1.364;2024-03-23T06:59:13;13.10;99.90
26408;DHT22;14583;43.604;1.364;2024-03-23T07:01:38;13.00;99.90
26408;DHT22;14583;43.604;1.364;2024-03-23T07:04:04;13.10;99.90
26408;DHT22;14583;43.604;1.364;2024-03-23T07:06:31;13.20;99.90
26408;DHT22;14583;43.604;1.364;2024-03-23T07:08:57;13.20;99.90
26408;DHT22;14583;43.604;1.364;2024-03-23T07:11:23;13.00;99.90
26408;DHT22;14583;43.604;1.364;2024-03-23T07:13:53;12.90;99.90
26408;DHT22;14583;43.604;1.364;2024-03-23T07:16:22;13.00;99.90
26408;DHT22;14583;43.604;1.364;2024-03-23T07:18:49;13.00;99.90
26408;DHT22;14583;43.604;1.364;2024-03-23T07:21:15;13.00;99.90
26408;DHT22;14583;43.604;1.364;2024-03-23T07:23:44;13.00;99.90
26408;DHT22;14583;43.604;1.364;2024-03-23T07:26:12;13.10;99.90
26408;DHT22;14583;43.604;1.364;2024-03-23T07:28:38;13.10;99.90
26408;DHT22;14583;43.604;1.364;2024-03-23T07:31:10;13.00;99.90
26408;DHT22;14583;43.604;1.364;2024-03-23T07:33:41;13.00;99.90
26408;DHT22;14583;43.604;1.364;2024-03-23T07:36:07;12.90;99.90
26408;DHT22;14583;43.604;1.364;2024-03-23T07:38:32;12.90;99.90
26408;DHT22;14583;43.604;1.364;2024-03-23T07:41:14;12.90;99.90
26408;DHT22;14583;43.604;1.364;2024-03-23T07:43:40;12.80;99.90
26408;DHT22;14583;43.604;1.364;2024-03-23T07:46:06;12.80;99.90
26408;DHT22;14583;43.604;1.364;2024-03-23T07:48:32;12.80;99.90
26408;DHT22;14583;43.604;1.364;2024-03-23T07:51:01;12.80;99.90
26408;DHT22;14583;43.604;1.364;2024-03-23T07:53:28;12.90;99.90
26408;DHT22;14583;43.604;1.364;2024-03-23T07:55:58;12.80;99.90
26408;DHT22;14583;43.604;1.364;2024-03-23T07:58:25;12.70;99.90
26408;DHT22;14583;43.604;1.364;2024-03-23T08:00:55;12.70;99.90
26408;DHT22;14583;43.604;1.364;2024-03-23T08:03:21;12.70;99.90
26408;DHT22;14583;43.604;1.364;2024-03-23T08:05:47;12.70;99.90
26408;DHT22;14583;43.604;1.364;2024-03-23T08:08:13;12.60;99.90
26408;DHT22;14583;43.604;1.364;2024-03-23T08:10:49;12.50;99.90
26408;DHT22;14583;43.604;1.364;2024-03-23T08:13:15;12.40;99.90
26408;DHT22;14583;43.604;1.364;2024-03-23T08:15:41;12.40;99.90
26408;DHT22;14583;43.604;1.364;2024-03-23T08:18:07;12.40;99.90
26408;DHT22;14583;43.604;1.364;2024-03-23T08:20:33;12.60;99.90
26408;DHT22;14583;43.604;1.364;2024-03-23T08:22:59;12.70;99.90
26408;DHT22;14583;43.604;1.364;2024-03-23T08:25:24;12.70;99.90
26408;DHT22;14583;43.604;1.364;2024-03-23T08:27:50;12.50;99.90
26408;DHT22;14583;43.604;1.364;2024-03-23T08:30:16;12.60;99.90
26408;DHT22;14583;43.604;1.364;2024-03-23T08:32:42;12.50;99.90
26408;DHT22;14583;43.604;1.364;2024-03-23T08:35:08;12.60;99.90
26408;DHT22;14583;43.604;1.364;2024-03-23T08:37:34;12.70;99.90
26408;DHT22;14583;43.604;1.364;2024-03-23T08:39:59;12.70;99.90
26408;DHT22;14583;43.604;1.364;2024-03-23T08:42:25;12.70;99.90
26408;DHT22;14583;43.604;1.364;2024-03-23T08:44:51;12.70;99.90
26408;DHT22;14583;43.604;1.364;2024-03-23T08:47:16;12.70;99.90
26408;DHT22;14583;43.604;1.364;2024-03-23T08:49:43;12.80;99.90
26408;DHT22;14583;43.604;1.364;2024-03-23T08:52:09;12.60;99.90
26408;DHT22;14583;43.604;1.364;2024-03-23T08:54:35;12.60;99.90
26408;DHT22;14583;43.604;1.364;2024-03-23T08:57:01;12.60;99.90
26408;DHT22;14583;43.604;1.364;2024-03-23T08:59:26;12.50;99.90
26408;DHT22;14583;43.604;1.364;2024-03-23T09:01:53;12.50;99.90
26408;DHT22;14583;43.604;1.364;2024-03-23T09:04:19;12.50;99.90
26408;DHT22;14583;43.604;1.364;2024-03-23T09:06:45;12.60;99.90
26408;DHT22;14583;43.604;1.364;2024-03-23T09:09:10;12.70;99.90
26408;DHT22;14583;43.604;1.364;2024-03-23T09:11:36;12.50;99.90
26408;DHT22;14583;43.604;1.364;2024-03-23T09:14:03;12.80;99.90
26408;DHT22;14583;43.604;1.364;2024-03-23T09:16:29;12.70;99.90
26408;DHT22;14583;43.604;1.364;2024-03-23T09:18:54;12.80;99.90
26408;DHT22;14583;43.604;1.364;2024-03-23T09:21:20;12.70;99.90
26408;DHT22;14583;43.604;1.364;2024-03-23T09:23:46;13.00;99.90
26408;DHT22;14583;43.604;1.364;2024-03-23T09:26:12;13.20;99.90
26408;DHT22;14583;43.604;1.364;2024-03-23T09:28:38;13.30;99.90
26408;DHT22;14583;43.604;1.364;2024-03-23T09:31:04;13.20;99.90
26408;DHT22;14583;43.604;1.364;2024-03-23T09:33:31;13.10;99.90
26408;DHT22;14583;43.604;1.364;2024-03-23T09:35:56;13.00;99.90
26408;DHT22;14583;43.604;1.364;2024-03-23T09:38:23;13.00;99.90
26408;DHT22;14583;43.604;1.364;2024-03-23T09:40:52;13.10;99.90
26408;DHT22;14583;43.604;1.364;2024-03-23T09:43:19;13.10;99.90
26408;DHT22;14583;43.604;1.364;2024-03-23T09:45:45;13.00;99.90
26408;DHT22;14583;43.604;1.364;2024-03-23T09:48:11;12.90;99.90
26408;DHT22;14583;43.604;1.364;2024-03-23T09:50:38;13.00;99.90
26408;DHT22;14583;43.604;1.364;2024-03-23T09:53:08;13.10;99.90
26408;DHT22;14583;43.604;1.364;2024-03-23T09:55:34;13.00;99.90
26408;DHT22;14583;43.604;1.364;2024-03-23T09:58:04;13.00;99.90
26408;DHT22;14583;43.604;1.364;2024-03-23T10:00:31;13.10;99.90
26408;DHT22;14583;43.604;1.364;2024-03-23T10:02:58;13.10;99.90
26408;DHT22;14583;43.604;1.364;2024-03-23T10:05:27;13.10;99.90
26408;DHT22;14583;43.604;1.364;2024-03-23T10:07:53;13.20;99.90
26408;DHT22;14583;43.604;1.364;2024-03-23T10:10:19;13.30;99.90
26408;DHT22;14583;43.604;1.364;2024-03-23T10:12:50;13.40;99.90
26408;DHT22;14583;43.604;1.364;2024-03-23T10:15:23;13.20;99.90
26408;DHT22;14583;43.604;1.364;2024-03-23T10:17:49;13.20;99.90
26408;DHT22;14583;43.604;1.364;2024-03-23T10:20:23;13.30;99.90
26408;DHT22;14583;43.604;1.364;2024-03-23T10:22:49;13.40;99.90
26408;DHT22;14583;43.604;1.364;2024-03-23T10:25:15;13.40;99.90
26408;DHT22;14583;43.604;1.364;2024-03-23T10:27:41;13.40;99.90
26408;DHT22;14583;43.604;1.364;2024-03-23T10:30:10;13.60;99.90
26408;DHT22;14583;43.604;1.364;2024-03-23T10:32:37;13.60;99.90
26408;DHT22;14583;43.604;1.364;2024-03-23T10:35:21;13.40;99.90
26408;DHT22;14583;43.604;1.364;2024-03-23T10:37:48;13.40;99.90
26408;DHT22;14583;43.604;1.364;2024-03-23T10:40:18;13.30;99.90
26408;DHT22;14583;43.604;1.364;2024-03-23T10:42:47;13.20;99.90
26408;DHT22;14583;43.604;1.364;2024-03-23T10:45:12;13.40;99.90
26408;DHT22;14583;43.604;1.364;2024-03-23T10:47:41;13.50;99.90
26408;DHT22;14583;43.604;1.364;2024-03-23T10:50:08;13.60;99.90
26408;DHT22;14583;43.604;1.364;2024-03-23T10:52:34;13.70;99.90
26408;DHT22;14583;43.604;1.364;2024-03-23T10:55:05;13.60;99.90
26408;DHT22;14583;43.604;1.364;2024-03-23T10:57:40;13.60;99.90
26408;DHT22;14583;43.604;1.364;2024-03-23T11:00:07;13.60;99.90
26408;DHT22;14583;43.604;1.364;2024-03-23T11:02:34;13.70;99.90
26408;DHT22;14583;43.604;1.364;2024-03-23T11:04:59;13.50;99.90
26408;DHT22;14583;43.604;1.364;2024-03-23T11:07:32;13.50;99.90
26408;DHT22;14583;43.604;1.364;2024-03-23T11:10:00;13.70;99.90
26408;DHT22;14583;43.604;1.364;2024-03-23T11:12:29;13.70;99.90
26408;DHT22;14583;43.604;1.364;2024-03-23T11:17:26;14.00;99.90
26408;DHT22;14583;43.604;1.364;2024-03-23T11:20:05;14.10;99.90
26408;DHT22;14583;43.604;1.364;2024-03-23T11:22:38;14.00;99.90
26408;DHT22;14583;43.604;1.364;2024-03-23T11:25:21;14.00;99.80
26408;DHT22;14583;43.604;1.364;2024-03-23T11:27:48;14.20;99.90
26408;DHT22;14583;43.604;1.364;2024-03-23T11:30:21;14.20;99.90
26408;DHT22;14583;43.604;1.364;2024-03-23T11:32:54;14.20;99.90
26408;DHT22;14583;43.604;1.364;2024-03-23T11:35:39;14.10;99.70
26408;DHT22;14583;43.604;1.364;2024-03-23T11:38:19;14.50;99.90
26408;DHT22;14583;43.604;1.364;2024-03-23T11:40:49;14.40;98.30
26408;DHT22;14583;43.604;1.364;2024-03-23T11:43:19;14.10;98.30
26408;DHT22;14583;43.604;1.364;2024-03-23T11:45:47;14.30;99.50
26408;DHT22;14583;43.604;1.364;2024-03-23T11:48:15;14.40;99.30
26408;DHT22;14583;43.604;1.364;2024-03-23T11:50:45;14.50;99.50
26408;DHT22;14583;43.604;1.364;2024-03-23T11:55:46;14.40;98.00
26408;DHT22;14583;43.604;1.364;2024-03-23T11:58:13;14.40;98.60
26408;DHT22;14583;43.604;1.364;2024-03-23T12:00:39;14.60;98.10
26408;DHT22;14583;43.604;1.364;2024-03-23T12:03:06;14.50;97.90
26408;DHT22;14583;43.604;1.364;2024-03-23T12:05:32;14.50;97.40
26408;DHT22;14583;43.604;1.364;2024-03-23T12:08:17;14.40;97.00
26408;DHT22;14583;43.604;1.364;2024-03-23T12:10:52;14.40;97.20
26408;DHT22;14583;43.604;1.364;2024-03-23T12:13:19;14.50;96.40
26408;DHT22;14583;43.604;1.364;2024-03-23T12:15:46;14.40;95.50
26408;DHT22;14583;43.604;1.364;2024-03-23T12:18:12;14.50;95.30
26408;DHT22;14583;43.604;1.364;2024-03-23T12:20:39;14.40;94.40
26408;DHT22;14583;43.604;1.364;2024-03-23T12:23:12;14.30;95.30
26408;DHT22;14583;43.604;1.364;2024-03-23T12:25:39;14.30;95.30
26408;DHT22;14583;43.604;1.364;2024-03-23T12:28:05;14.40;94.90
26408;DHT22;14583;43.604;1.364;2024-03-23T12:30:41;14.30;94.70
26408;DHT22;14583;43.604;1.364;2024-03-23T12:33:07;14.40;94.60
26408;DHT22;14583;43.604;1.364;2024-03-23T12:35:36;14.50;94.90
26408;DHT22;14583;43.604;1.364;2024-03-23T12:38:01;14.50;94.80
26408;DHT22;14583;43.604;1.364;2024-03-23T12:40:27;14.60;94.60
26408;DHT22;14583;43.604;1.364;2024-03-23T12:42:56;14.80;94.70
26408;DHT22;14583;43.604;1.364;2024-03-23T12:45:22;14.90;95.10
26408;DHT22;14583;43.604;1.364;2024-03-23T12:47:48;14.80;94.50
26408;DHT22;14583;43.604;1.364;2024-03-23T12:50:13;14.70;94.60
26408;DHT22;14583;43.604;1.364;2024-03-23T12:52:39;14.80;95.10
26408;DHT22;14583;43.604;1.364;2024-03-23T12:55:05;14.70;94.60
26408;DHT22;14583;43.604;1.364;2024-03-23T12:57:32;14.60;94.70
26408;DHT22;14583;43.604;1.364;2024-03-23T12:59:58;14.60;95.10
26408;DHT22;14583;43.604;1.364;2024-03-23T13:02:24;14.60;94.50
26408;DHT22;14583;43.604;1.364;2024-03-23T13:04:50;14.70;94.90
26408;DHT22;14583;43.604;1.364;2024-03-23T13:07:20;14.80;95.00
26408;DHT22;14583;43.604;1.364;2024-03-23T13:09:47;15.10;95.40
26408;DHT22;14583;43.604;1.364;2024-03-23T13:12:13;15.20;95.00
26408;DHT22;14583;43.604;1.364;2024-03-23T13:14:39;15.10;95.30
26408;DHT22;14583;43.604;1.364;2024-03-23T13:17:08;15.10;95.80
26408;DHT22;14583;43.604;1.364;2024-03-23T13:19:34;15.10;95.90
26408;DHT22;14583;43.604;1.364;2024-03-23T13:22:05;14.90;94.90
26408;DHT22;14583;43.604;1.364;2024-03-23T13:24:40;14.70;95.30
26408;DHT22;14583;43.604;1.364;2024-03-23T13:27:30;15.00;96.40
26408;DHT22;14583;43.604;1.364;2024-03-23T13:40:00;15.20;95.30
26408;DHT22;14583;43.604;1.364;2024-03-23T13:42:38;15.30;95.30
26408;DHT22;14583;43.604;1.364;2024-03-23T13:45:15;15.30;95.30
26408;DHT22;14583;43.604;1.364;2024-03-23T13:47:57;15.30;95.20
26408;DHT22;14583;43.604;1.364;2024-03-23T13:51:22;15.30;95.20
26408;DHT22;14583;43.604;1.364;2024-03-23T13:54:18;15.40;94.80
26408;DHT22;14583;43.604;1.364;2024-03-23T13:57:04;15.40;95.30
26408;DHT22;14583;43.604;1.364;2024-03-23T14:02:27;15.70;95.40
26408;DHT22;14583;43.604;1.364;2024-03-23T14:05:30;15.80;95.60
26408;DHT22;14583;43.604;1.364;2024-03-23T14:07:59;16.00;95.70
26408;DHT22;14583;43.604;1.364;2024-03-23T14:13:23;15.90;94.70
26408;DHT22;14583;43.604;1.364;2024-03-23T14:15:58;15.80;94.30
26408;DHT22;14583;43.604;1.364;2024-03-23T14:18:32;15.70;94.70
26408;DHT22;14583;43.604;1.364;2024-03-23T14:21:04;15.70;94.30
26408;DHT22;14583;43.604;1.364;2024-03-23T14:23:41;16.00;95.30
26408;DHT22;14583;43.604;1.364;2024-03-23T14:26:38;16.20;95.10
26408;DHT22;14583;43.604;1.364;2024-03-23T14:29:29;16.10;94.40
26408;DHT22;14583;43.604;1.364;2024-03-23T14:31:57;16.10;94.40
26408;DHT22;14583;43.604;1.364;2024-03-23T14:37:32;16.40;94.10
26408;DHT22;14583;43.604;1.364;2024-03-23T14:40:20;16.70;94.10
26408;DHT22;14583;43.604;1.364;2024-03-23T14:42:51;16.90;93.90
26408;DHT22;14583;43.604;1.364;2024-03-23T14:45:23;16.90;94.20
26408;DHT22;14583;43.604;1.364;2024-03-23T14:47:51;17.10;94.00
26408;DHT22;14583;43.604;1.364;2024-03-23T14:50:28;17.10;92.90
26408;DHT22;14583;43.604;1.364;2024-03-23T14:53:17;17.30;93.60
26408;DHT22;14583;43.604;1.364;2024-03-23T14:58:58;17.60;92.80
26408;DHT22;14583;43.604;1.364;2024-03-23T15:01:29;17.70;92.70
26408;DHT22;14583;43.604;1.364;2024-03-23T15:04:06;17.80;92.50
26408;DHT22;14583;43.604;1.364;2024-03-23T15:06:40;17.90;91.80
26408;DHT22;14583;43.604;1.364;2024-03-23T15:09:42;17.80;92.70
26408;DHT22;14583;43.604;1.364;2024-03-23T15:12:21;18.10;92.40
26408;DHT22;14583;43.604;1.364;2024-03-23T15:14:55;18.30;91.30
26408;DHT22;14583;43.604;1.364;2024-03-23T15:17:41;18.20;90.30
26408;DHT22;14583;43.604;1.364;2024-03-23T15:21:10;18.80;91.40
26408;DHT22;14583;43.604;1.364;2024-03-23T15:24:21;18.90;90.60
26408;DHT22;14583;43.604;1.364;2024-03-23T15:27:41;19.70;91.90
26408;DHT22;14583;43.604;1.364;2024-03-23T15:30:28;20.60;90.10
26408;DHT22;14583;43.604;1.364;2024-03-23T15:33:30;20.70;84.60
26408;DHT22;14583;43.604;1.364;2024-03-23T15:39:30;23.10;86.50
26408;DHT22;14583;43.604;1.364;2024-03-23T15:42:09;28.90;74.80
26408;DHT22;14583;43.604;1.364;2024-03-23T15:45:19;32.00;63.90
26408;DHT22;14583;43.604;1.364;2024-03-23T15:51:25;35.10;55.00
26408;DHT22;14583;43.604;1.364;2024-03-23T15:57:33;37.00;51.10
26408;DHT22;14583;43.604;1.364;2024-03-23T16:03:16;36.90;48.70
26408;DHT22;14583;43.604;1.364;2024-03-23T16:05:41;37.10;48.20
26408;DHT22;14583;43.604;1.364;2024-03-23T16:08:07;36.90;48.60
26408;DHT22;14583;43.604;1.364;2024-03-23T16:10:34;37.00;47.40
26408;DHT22;14583;43.604;1.364;2024-03-23T16:13:00;36.30;48.80
26408;DHT22;14583;43.604;1.364;2024-03-23T16:15:28;34.90;47.70
26408;DHT22;14583;43.604;1.364;2024-03-23T16:17:53;35.30;49.10
26408;DHT22;14583;43.604;1.364;2024-03-23T16:20:19;35.40;48.00
26408;DHT22;14583;43.604;1.364;2024-03-23T16:22:46;34.50;48.10
26408;DHT22;14583;43.604;1.364;2024-03-23T16:25:12;34.20;46.70
26408;DHT22;14583;43.604;1.364;2024-03-23T16:27:37;34.20;48.30
26408;DHT22;14583;43.604;1.364;2024-03-23T16:30:03;32.80;49.30
26408;DHT22;14583;43.604;1.364;2024-03-23T16:32:29;28.00;50.20
26408;DHT22;14583;43.604;1.364;2024-03-23T16:34:57;27.30;53.30
26408;DHT22;14583;43.604;1.364;2024-03-23T16:37:23;26.30;54.30
26408;DHT22;14583;43.604;1.364;2024-03-23T16:39:49;28.10;53.80
26408;DHT22;14583;43.604;1.364;2024-03-23T16:42:15;30.10;51.30
26408;DHT22;14583;43.604;1.364;2024-03-23T16:44:41;31.70;50.00
26408;DHT22;14583;43.604;1.364;2024-03-23T16:47:07;31.60;49.50
26408;DHT22;14583;43.604;1.364;2024-03-23T16:49:35;31.40;49.40
26408;DHT22;14583;43.604;1.364;2024-03-23T16:52:01;31.30;49.30
26408;DHT22;14583;43.604;1.364;2024-03-23T16:54:26;29.20;50.20
26408;DHT22;14583;43.604;1.364;2024-03-23T16:56:52;27.20;52.50
26408;DHT22;14583;43.604;1.364;2024-03-23T16:59:18;27.60;52.70
26408;DHT22;14583;43.604;1.364;2024-03-23T17:01:44;28.80;51.50
26408;DHT22;14583;43.604;1.364;2024-03-23T17:04:09;28.30;51.70
26408;DHT22;14583;43.604;1.364;2024-03-23T17:06:36;24.00;52.90
26408;DHT22;14583;43.604;1.364;2024-03-23T17:09:05;20.60;58.60
26408;DHT22;14583;43.604;1.364;2024-03-23T17:11:32;18.50;62.20
26408;DHT22;14583;43.604;1.364;2024-03-23T17:13:57;17.70;65.40
26408;DHT22;14583;43.604;1.364;2024-03-23T17:16:23;18.10;66.70